sept
22

MX FIM : GRAND PRIX D’ALLEMAGNE – LES QUALIFICATIONS

MX1 – Qualifying Race – Classification
Pos Nr Rider Nat. Fed. Bike Time laps Diff. First Diff. Prev. Bestlaptime in lap Speed

1 222 Cairoli, Antonio ITA FMI KTM 26:00.844 13 0:00.000 0:00.000 1:56.803 7 50.393
2 12 Nagl, Maximilian GER DMSB KTM 26:06.274 13 0:05.430 0:05.430 1:58.174 5 49.808
3 94 Roczen, Ken GER DMSB KTM 26:11.045 13 0:10.201 0:04.771 1:57.182 6 50.23
4 24 Simpson, Shaun GBR ACU Yamaha 26:36.342 13 0:35.498 0:25.297 1:59.907 4 49.088
5 21 Paulin, Gautier FRA MCM Kawasaki 26:39.351 13 0:38.507 0:03.009 1:58.920 5 49.495
6 9 de Dycker, Ken BEL FMB KTM 26:44.028 13 0:43.184 0:04.677 1:59.611 6 49.21
7 6 Coppins, Joshua NZL MNZ Yamaha 26:45.450 13 0:44.606 0:01.422 2:00.404 7 48.885
8 25 Desalle, Clement BEL FMB Suzuki 26:45.763 13 0:44.919 0:00.313 2:00.398 6 48.888
9 30 Aranda, Gregory FRA FFM Yamaha 26:49.222 13 0:48.378 0:03.459 2:00.640 5 48.79
10 7 Barragan, Jonathan ESP RFME Honda 26:50.854 13 0:50.010 0:01.632 2:00.854 5 48.703
11 777 Bobryshev, Evgeny RUS MFR Honda 26:52.580 13 0:51.736 0:01.726 2:00.439 6 48.871
12 22 Strijbos, Kevin BEL FMB KTM 26:52.918 13 0:52.074 0:00.338 2:00.817 6 48.718
13 4 Leok, Tanel EST EMF Suzuki 26:53.237 13 0:52.393 0:00.319 2:00.559 6 48.823
14 121 Boog, Xavier FRA FFM Kawasaki 26:55.009 13 0:54.165 0:01.772 2:00.296 5 48.929
15 377 Pourcel, Christophe FRA FFM Kawasaki 27:05.263 13 1:04.419 0:10.254 1:59.881 7 49.099
16 11 Pourcel, Sebastien FRA FFM Kawasaki 27:24.547 13 1:23.703 0:19.284 1:58.912 12 49.499
17 32 Potisek, Milko FRA FFM Honda 27:27.144 13 1:26.300 0:02.597 2:02.333 7 48.115
18 43 Mackenzie, Bryan GBR ACU KTM 27:28.717 13 1:27.873 0:01.573 2:02.832 7 47.919
19 161 Howell, Austin USA AMA Kawasaki 27:38.666 13 1:37.822 0:09.949 2:02.716 5 47.964
20 26 Delince, Jeremy BEL FMB Yamaha 27:41.648 13 1:40.804 0:02.982 2:03.810 4 47.541
21 112 Law, Jamie GBR ACU KTM 27:51.110 13 1:50.266 0:09.462 2:04.549 6 47.259
22 171 Bertuzzo, Pier Filippo ITA FMI Honda 27:52.220 13 1:51.376 0:01.110 2:04.728 7 47.191
23 95 Justs, Augusts LAT LAMSF Honda 28:21.199 13 2:20.355 0:28.979 2:04.428 4 47.304
24 39 Guarneri, Davide ITA FMI KTM 12:42.246 6 7 laps 7 laps 2:00.654 5 48.784

MX2 – Qualifying Race – Classification
Pos Nr Rider Nat. Fed. Bike Time laps Diff. First Diff. Prev. Bestlaptime in lap Speed

1 100 Searle, Tommy GBR ACU Kawasaki 24:38.133 12 0:00.000 0:00.000 1:59.538 6 49.24
2 338 Osborne, Zachary USA ACU Yamaha 24:45.554 12 0:07.421 0:07.421 2:00.127 7 48.998
3 911 Tixier, Jordi FRA FFM KTM 24:52.419 12 0:14.286 0:06.865 2:01.700 6 48.365
4 84 Herlings, Jeffrey NED KNMV KTM 24:54.608 12 0:16.475 0:02.189 2:00.113 12 49.004
5 44 Banks-Browne, Elliott GBR ACU KTM 24:55.709 12 0:17.576 0:01.101 2:01.782 11 48.332
6 17 Butron, Jose ESP RFME KTM 25:01.486 12 0:23.353 0:05.777 2:00.866 9 48.699
7 45 Nicholls, Jake GBR ACU KTM 25:04.384 12 0:26.251 0:02.898 2:01.838 10 48.31
8 243 Gajser, Tim SLO AMZS KTM 25:07.405 12 0:29.272 0:03.021 2:02.417 9 48.082
9 66 Tonkov, Alexander RUS MFR Honda 25:09.241 12 0:31.108 0:01.836 2:02.376 10 48.098
10 77 Lupino, Alessandro ITA FMI Husqvarna 25:11.075 12 0:32.942 0:01.834 2:01.680 12 48.373
11 461 Febvre, Romain FRA FFM KTM 25:12.838 12 0:34.705 0:01.763 2:02.389 6 48.093
12 37 Teillet, Valentin FRA FFM Kawasaki 25:15.736 12 0:37.603 0:02.898 2:02.478 6 48.058
13 222 Lacan, Jordan FRA FFM Kawasaki 25:17.179 12 0:39.046 0:01.443 2:03.023 10 47.845
14 33 Lieber, Julien BEL FMB Suzuki 25:17.450 12 0:39.317 0:00.271 2:02.677 12 47.98
15 25 Coldenhoff, Glenn NED KNMV KTM 25:21.773 12 0:43.640 0:04.323 2:02.179 7 48.175
16 202 Larrieu, Loic FRA FFM Kawasaki 25:24.780 12 0:46.647 0:03.007 2:02.354 8 48.106
17 128 Monticelli, Ivo ITA FMI Husqvarna 25:27.804 12 0:49.671 0:03.024 2:03.396 11 47.7
18 141 Cervellin, Andrea ITA FMI TM 25:28.769 12 0:50.636 0:00.965 2:03.141 7 47.799
19 112 Heibye, Even NOR NMF KTM 25:42.126 12 1:03.993 0:13.357 2:04.429 5 47.304
20 71 Graulus, Damon BEL FMB Suzuki 25:48.900 12 1:10.767 0:06.774 2:04.821 12 47.156
21 195 Justs, Roberts LAT LAMSF Honda 25:49.494 12 1:11.361 0:00.594 2:05.618 9 46.856
22 600 Ivanovs, Davis LAT LAMSF Kawasaki 25:56.212 12 1:18.079 0:06.718 2:04.251 5 47.372
23 6 Anstie, Max GBR AMA Honda 26:03.412 12 1:25.279 0:07.200 2:03.527 3 47.65
24 7 Tonus, Arnaud SUI FMS Yamaha 26:07.654 12 1:29.521 0:04.242 2:01.931 3 48.273
25 824 Kouwenberg, Nick NED KNMV TM 26:11.930 12 1:33.797 0:04.276 2:05.960 6 46.729
26 241 Park, Andre EST EMF Yamaha 26:15.814 12 1:37.681 0:03.884 2:07.396 5 46.202
27 73 Irt, Peter SLO AMZS Yamaha 26:18.807 12 1:40.674 0:02.993 2:06.983 4 46.353
28 909 Neurauter, Lukas AUT OeAMTC KTM 26:21.446 12 1:43.313 0:02.639 2:06.986 4 46.352
29 15 Harwood, Hamish GBR ACU Honda 26:22.441 12 1:44.308 0:00.995 2:07.030 12 46.336
30 300 Golovkin, Viacheslav RUS LAMSF Kawasaki 27:40.923 12 3:02.790 1:18.482 2:08.062 9 45.962
31 142 Paturel, Benoit FRA FFM Kawasaki 26:23.810 11 1 lap 1 lap 2:03.535 5 47.646
32 249 Larsen, Nikolaj DEN DMU Suzuki 21:49.689 10 2 laps 1 lap 2:02.836 6 47.918
33 511 Scheele, Kieran NZL ACU Honda 15:34.016 7 5 laps 3 laps 2:07.855 7 46.037
34 43 Dewulf, Jeffrey BEL FMB Yamaha 9:04.809 4 8 laps 3 laps 2:07.443 4 46.185
35 837 Battig, Alessandro ITA FMI Yamaha 6:56.731 3 9 laps 1 lap 2:08.663 3 45.747
36 172 Van Doninck, Brent BEL FMB KTM 1:16.205 0 12 laps 3 laps 0:00.000 0

Round 9-Germany – Teutschenthal – 23 Sep 2012
MX3 – Qualifying Race – Classification
Pos Nr Rider Nat. Fed. Bike Time laps Diff. First Diff. Prev. Bestlaptime in lap Speed

1 52 Walkner, Matthias AUT OeAMTC KTM 26:14.531 12 0:00.000 0:00.000 2:07.108 12 46.307
2 519 Baudrexl, Dennis GER DMSB KTM 26:25.482 12 0:10.951 0:10.951 2:08.203 10 45.912
3 232 Michek, Martin CZE ACCR KTM 26:30.665 12 0:16.134 0:05.183 2:06.643 12 46.477
4 123 Neugebauer, Filip CZE DMSB Kawasaki 26:32.162 12 0:17.631 0:01.497 2:05.516 11 46.894
5 262 Lonka, Lukasz POL PZM Honda 26:44.654 12 0:30.123 0:12.492 2:09.734 12 45.37
6 10 Smitka, Petr CZE ACCR Kawasaki 26:45.601 12 0:31.070 0:00.947 2:10.075 6 45.251
7 49 Schmidinger, Günter AUT OeAMTC Honda 26:46.370 12 0:31.839 0:00.769 2:10.484 12 45.109
8 62 Gercar, Klemen SLO AMZS Honda 26:50.069 12 0:35.538 0:03.699 2:09.700 7 45.382
9 388 Söderberg, Ludvig FIN SML Honda 26:54.095 12 0:39.564 0:04.026 2:10.806 5 44.998
10 891 Tyletski, Evgeni BLR BFMS KTM 26:57.080 12 0:42.549 0:02.985 2:11.720 3 44.686
11 764 Morozov, Roman UKR FMU Yamaha 26:59.445 12 0:44.914 0:02.365 2:09.727 10 45.372
12 23 Verstrepen, Stijn BEL FMB Honda 27:03.384 12 0:48.853 0:03.939 2:11.169 10 44.873
13 112 Batista, Levy FRA FFM KTM 27:08.312 12 0:53.781 0:04.928 2:10.680 8 45.041
14 111 Bartos, Petr CZE ACCR KTM 27:13.126 12 0:58.595 0:04.814 2:10.822 10 44.992
15 46 Sjöberg, Rasmus SWE SVEMO Honda 27:15.093 12 1:00.562 0:01.967 2:11.940 5 44.611
16 39 Cambre, Jilani BEL FMB Yamaha 27:17.708 12 1:03.177 0:02.615 2:10.654 10 45.05
17 67 Michalec, Petr CZE ACCR Honda 27:20.014 12 1:05.483 0:02.306 2:11.730 10 44.682
18 241 Rüf, Philip AUT OeAMTC Honda 27:24.663 12 1:10.132 0:04.649 2:12.392 11 44.459
19 76 Reitbauer, Peter AUT OeAMTC KTM 27:28.150 12 1:13.619 0:03.487 2:13.175 11 44.197
20 116 Pashchynskyi, Mykola UKR FMU KTM 27:32.183 12 1:17.652 0:04.033 2:12.922 9 44.282
21 171 Kovalainen, Marko FIN SML Yamaha 27:42.082 12 1:27.551 0:09.899 2:13.078 10 44.23
22 38 Rouhiainen, Riku FIN SML Yamaha 27:46.111 12 1:31.580 0:04.029 2:14.454 10 43.777
23 125 Govaert, Maarten BEL FMB Yamaha 27:51.110 12 1:36.579 0:04.999 2:12.890 5 44.292
24 132 Burenko, Andriy UKR FMU Suzuki 27:58.735 12 1:44.204 0:07.625 2:13.634 11 44.046
25 48 Schmidinger, Andreas AUT OeAMTC Honda 28:02.433 12 1:47.902 0:03.698 2:14.798 10 43.665
26 126 Asmanov, Dmytro UKR FMU KTM 28:10.124 12 1:55.593 0:07.691 2:16.027 11 43.271
27 134 Krychfalushiy, Andriy UKR FMU Yamaha 28:18.558 12 2:04.027 0:08.434 2:15.950 6 43.295
28 71 Valente, Christopher SUI FMS KTM 28:23.650 12 2:09.119 0:05.092 2:12.338 10 44.477
29 84 Brucart, Ramon ESP RFME Yamaha 28:30.485 12 2:15.954 0:06.835 2:16.852 5 43.01
30 124 Haller, Kevin SUI FMS Suzuki 26:37.822 11 1 lap 1 lap 2:18.499 2 42.499
31 26 Hänchen, Christoph GER DMSB Honda 27:30.582 11 1 lap 0:52.760 2:18.336 6 42.549
32 557 Begon, Loic BEL MUL Yamaha 27:44.606 11 1 lap 0:14.024 2:22.571 2 41.285
33 289 Irt, Matevz SLO AMZS Suzuki 17:58.295 8 4 laps 3 laps 2:10.987 4 44.936
34 88 Roncin, Pierrick FRA FFM Honda 16:01.902 7 5 laps 1 lap 2:12.438 4 44.443
35 227 Kraus, David AUT OeAMTC KTM 5:09.679 2 10 laps 5 laps 2:19.273 2 42.262

Round 8-Germany – Teutschenthal – 23 Sep 2012
WMX – Race 1 – Classification
Pos Nr Rider Nat. Fed. Bike Time laps Diff. First Diff. Prev. Bestlaptime in lap Speed

1 114 Lancelot, Livia FRA FFM Kawasaki 25:25.181 11 0:00.000 0:00.000 2:15.778 7 43.35
2 66 Rutledge, Meghan Kat AUS MA Kawasaki 25:29.283 11 0:04.102 0:04.102 2:15.870 7 43.321
3 3 Papenmeier-Picoto, Larissa GER DMSB Suzuki 25:42.394 11 0:17.213 0:13.111 2:16.333 5 43.174
4 44 Kane, Natalie GBR MCUI KTM 26:13.374 11 0:48.193 0:30.980 2:15.990 5 43.283
5 111 Borchers, Anne GER DMSB Suzuki 26:21.591 11 0:56.410 0:08.217 2:19.768 2 42.113
6 46 van der Wekken, Britt NED KNMV Honda 27:13.509 11 1:48.328 0:51.918 2:24.746 3 40.664
7 73 Pettersen, Marie S. NOR NMF Yamaha 27:18.090 11 1:52.909 0:04.581 2:24.583 8 40.71
8 52 Charroux, Justine FRA FFM Yamaha 27:19.595 11 1:54.414 0:01.505 2:23.159 8 41.115
9 149 Veenstra, Marianne NED KNMV KTM 27:33.084 11 2:07.903 0:13.489 2:24.835 6 40.639
10 23 Paull, Sophia GBR ACU Honda 25:31.463 10 1 lap 1 lap 2:28.223 7 39.71
11 151 Klink, Nina NED KNMV KTM 25:33.308 10 1 lap 0:01.845 2:27.227 6 39.979
12 98 Schittenhelm, Selina GER DMSB KTM 25:43.456 10 1 lap 0:10.148 2:30.914 2 39.002
13 136 Dunlop, Billie GBR ACU Honda 25:45.159 10 1 lap 0:01.703 2:28.894 4 39.531
14 69 Stoutjesdijk, Stephanie NED KNMV KTM 25:56.579 10 1 lap 0:11.420 2:31.238 4 38.919
15 195 Josta, Samanta LAT LAMSF TM 26:04.828 10 1 lap 0:08.249 2:31.303 4 38.902
16 96 Simonova, Lucie CZE ACCR KTM 26:11.312 10 1 lap 0:06.484 2:32.268 8 38.656
17 36 de Barquin, Morane BEL FMB Honda 26:16.425 10 1 lap 0:05.113 2:31.753 5 38.787
18 811 Vage, Genette NOR NMF KTM 26:25.903 10 1 lap 0:09.478 2:33.722 5 38.29
19 221 Lankova, Barbora CZE ACCR Kawasaki 26:26.824 10 1 lap 0:00.921 2:31.449 9 38.865
20 40 Reitze, Alicia GER DMSB Yamaha 26:27.319 10 1 lap 0:00.495 2:29.182 5 39.455
21 26 Mlynkova, Marika CZE ACCR Kawasaki 26:33.067 10 1 lap 0:05.748 2:33.816 9 38.267
22 10 Dubois, Laura BEL FMB Honda 26:53.720 10 1 lap 0:20.653 2:35.098 6 37.95
23 22 Danz, Vanessa GER DMSB KTM 26:57.848 10 1 lap 0:04.128 2:35.881 4 37.76
24 34 Dunlop, Alix GBR ACU Honda 27:21.303 10 1 lap 0:23.455 2:36.192 4 37.684
25 45 Jubert, Antonie GER DMSB Honda 27:37.607 10 1 lap 0:16.304 2:37.898 10 37.277
26 987 Lago, Erica ITA FMI Suzuki 27:39.771 10 1 lap 0:02.164 2:39.386 7 36.929
27 51 Marsh, Danni GBR ACU Honda 28:00.765 10 1 lap 0:20.994 2:39.905 7 36.809
28 14 Hromkova, Tereza CZE ACCR KTM 23:52.808 9 2 laps 1 lap 2:34.022 5 38.215
29 161 Geyerhofer, Selina AUT OeAMTC KTM 19:28.651 7 4 laps 2 laps 2:28.536 2 39.627
30 49 Boudou, Anouk FRA FFM Yamaha 5:55.887 2 9 laps 5 laps 2:40.821 2 36.6

A voir aussi :

Le commentaires sont fermés.